bureau de piste

Plus d’information sur les terrains : LFMD et VALBERG

METAR LFMD 232000Z AUTO VRB02KT CAVOK 18/16 Q1013 NOSIG

TAF LFMD 231400Z 2315/2415 VRB05KT CAVOK   PROB30   TEMPO 2315/2319 09015KT   BECMG 2319/2321 34010KT   BECMG 2412/2414 09015KT

INFORMATION ADDS - 2026 UTC 23 Sep 2019

Les commentaires sont clos.